sensor_id;sensor_type;location;lat;lon;timestamp;pressure;altitude;pressure_sealevel;temperature;humidity
53550;BME280;73079;52.914;-0.982;2024-03-17T00:01:37;101302.06;;;9.22;100.00
53550;BME280;73079;52.914;-0.982;2024-03-17T00:04:03;101289.47;;;9.14;100.00
53550;BME280;73079;52.914;-0.982;2024-03-17T00:06:29;101293.34;;;9.20;100.00
53550;BME280;73079;52.914;-0.982;2024-03-17T00:08:55;101284.00;;;9.24;100.00
53550;BME280;73079;52.914;-0.982;2024-03-17T00:11:22;101283.50;;;9.20;100.00
53550;BME280;73079;52.914;-0.982;2024-03-17T00:13:48;101288.66;;;9.22;100.00
53550;BME280;73079;52.914;-0.982;2024-03-17T00:16:14;101286.50;;;9.25;100.00
53550;BME280;73079;52.914;-0.982;2024-03-17T00:18:44;101274.44;;;9.21;100.00
53550;BME280;73079;52.914;-0.982;2024-03-17T00:21:09;101273.59;;;9.21;100.00
53550;BME280;73079;52.914;-0.982;2024-03-17T00:23:35;101271.59;;;9.23;100.00
53550;BME280;73079;52.914;-0.982;2024-03-17T00:26:02;101264.53;;;9.22;100.00
53550;BME280;73079;52.914;-0.982;2024-03-17T00:28:29;101257.00;;;9.25;100.00
53550;BME280;73079;52.914;-0.982;2024-03-17T00:30:55;101250.16;;;9.23;100.00
53550;BME280;73079;52.914;-0.982;2024-03-17T00:33:20;101248.66;;;9.28;100.00
53550;BME280;73079;52.914;-0.982;2024-03-17T00:35:46;101235.25;;;9.28;100.00
53550;BME280;73079;52.914;-0.982;2024-03-17T00:38:12;101238.44;;;9.24;100.00
53550;BME280;73079;52.914;-0.982;2024-03-17T00:40:38;101233.59;;;9.27;100.00
53550;BME280;73079;52.914;-0.982;2024-03-17T00:43:04;101242.31;;;9.38;100.00
53550;BME280;73079;52.914;-0.982;2024-03-17T00:45:31;101231.25;;;9.41;100.00
53550;BME280;73079;52.914;-0.982;2024-03-17T00:47:57;101237.59;;;9.31;100.00
53550;BME280;73079;52.914;-0.982;2024-03-17T00:50:23;101238.31;;;9.42;100.00
53550;BME280;73079;52.914;-0.982;2024-03-17T00:52:48;101239.31;;;9.41;100.00
53550;BME280;73079;52.914;-0.982;2024-03-17T00:55:14;101242.81;;;9.41;100.00
53550;BME280;73079;52.914;-0.982;2024-03-17T00:57:40;101235.47;;;9.43;100.00
53550;BME280;73079;52.914;-0.982;2024-03-17T01:00:07;101230.09;;;9.43;100.00
53550;BME280;73079;52.914;-0.982;2024-03-17T01:02:38;101226.91;;;9.48;100.00
53550;BME280;73079;52.914;-0.982;2024-03-17T01:05:05;101219.22;;;9.53;100.00
53550;BME280;73079;52.914;-0.982;2024-03-17T01:07:31;101213.16;;;9.43;100.00
53550;BME280;73079;52.914;-0.982;2024-03-17T01:09:57;101203.28;;;9.43;100.00
53550;BME280;73079;52.914;-0.982;2024-03-17T01:12:23;101203.78;;;9.47;100.00
53550;BME280;73079;52.914;-0.982;2024-03-17T01:14:49;101208.97;;;9.48;100.00
53550;BME280;73079;52.914;-0.982;2024-03-17T01:17:15;101219.53;;;9.50;100.00
53550;BME280;73079;52.914;-0.982;2024-03-17T01:19:42;101221.75;;;9.55;100.00
53550;BME280;73079;52.914;-0.982;2024-03-17T01:22:07;101220.91;;;9.54;100.00
53550;BME280;73079;52.914;-0.982;2024-03-17T01:24:33;101213.66;;;9.46;100.00
53550;BME280;73079;52.914;-0.982;2024-03-17T01:27:00;101209.66;;;9.50;100.00
53550;BME280;73079;52.914;-0.982;2024-03-17T01:29:27;101201.44;;;9.60;100.00
53550;BME280;73079;52.914;-0.982;2024-03-17T01:31:53;101201.78;;;9.57;100.00
53550;BME280;73079;52.914;-0.982;2024-03-17T01:34:19;101187.50;;;9.48;100.00
53550;BME280;73079;52.914;-0.982;2024-03-17T01:36:46;101179.66;;;9.55;100.00
53550;BME280;73079;52.914;-0.982;2024-03-17T01:39:11;101172.94;;;9.59;100.00
53550;BME280;73079;52.914;-0.982;2024-03-17T01:41:37;101176.66;;;9.58;100.00
53550;BME280;73079;52.914;-0.982;2024-03-17T01:44:03;101168.91;;;9.55;100.00
53550;BME280;73079;52.914;-0.982;2024-03-17T01:46:29;101161.38;;;9.59;100.00
53550;BME280;73079;52.914;-0.982;2024-03-17T01:48:55;101170.59;;;9.56;100.00
53550;BME280;73079;52.914;-0.982;2024-03-17T01:51:21;101162.72;;;9.55;100.00
53550;BME280;73079;52.914;-0.982;2024-03-17T01:53:49;101164.88;;;9.59;100.00
53550;BME280;73079;52.914;-0.982;2024-03-17T01:56:16;101172.44;;;9.56;100.00
53550;BME280;73079;52.914;-0.982;2024-03-17T01:58:44;101168.44;;;9.60;100.00
53550;BME280;73079;52.914;-0.982;2024-03-17T02:01:10;101157.53;;;9.61;100.00
53550;BME280;73079;52.914;-0.982;2024-03-17T02:03:36;101161.91;;;9.54;100.00
53550;BME280;73079;52.914;-0.982;2024-03-17T02:06:02;101159.22;;;9.70;100.00
53550;BME280;73079;52.914;-0.982;2024-03-17T02:08:28;101150.50;;;9.68;100.00
53550;BME280;73079;52.914;-0.982;2024-03-17T02:10:57;101144.44;;;9.50;100.00
53550;BME280;73079;52.914;-0.982;2024-03-17T02:13:23;101145.78;;;9.54;100.00
53550;BME280;73079;52.914;-0.982;2024-03-17T02:15:49;101145.78;;;9.70;100.00
53550;BME280;73079;52.914;-0.982;2024-03-17T02:18:15;101142.59;;;9.75;100.00
53550;BME280;73079;52.914;-0.982;2024-03-17T02:20:41;101149.16;;;9.81;100.00
53550;BME280;73079;52.914;-0.982;2024-03-17T02:23:26;101143.28;;;9.77;100.00
53550;BME280;73079;52.914;-0.982;2024-03-17T02:25:52;101142.75;;;9.82;100.00
53550;BME280;73079;52.914;-0.982;2024-03-17T02:28:18;101135.03;;;9.79;100.00
53550;BME280;73079;52.914;-0.982;2024-03-17T02:30:44;101127.34;;;9.76;100.00
53550;BME280;73079;52.914;-0.982;2024-03-17T02:33:10;101135.03;;;9.87;100.00
53550;BME280;73079;52.914;-0.982;2024-03-17T02:35:36;101134.88;;;9.88;100.00
53550;BME280;73079;52.914;-0.982;2024-03-17T02:38:02;101127.16;;;9.85;100.00
53550;BME280;73079;52.914;-0.982;2024-03-17T02:40:30;101131.38;;;9.88;100.00
53550;BME280;73079;52.914;-0.982;2024-03-17T02:42:55;101128.34;;;9.83;100.00
53550;BME280;73079;52.914;-0.982;2024-03-17T02:45:21;101125.31;;;9.78;100.00
53550;BME280;73079;52.914;-0.982;2024-03-17T02:47:47;101121.63;;;9.79;100.00
53550;BME280;73079;52.914;-0.982;2024-03-17T02:50:13;101118.28;;;9.77;100.00
53550;BME280;73079;52.914;-0.982;2024-03-17T02:52:39;101118.97;;;9.70;100.00
53550;BME280;73079;52.914;-0.982;2024-03-17T02:55:05;101112.06;;;9.76;100.00
53550;BME280;73079;52.914;-0.982;2024-03-17T02:57:33;101111.75;;;9.71;100.00
53550;BME280;73079;52.914;-0.982;2024-03-17T02:59:59;101107.88;;;9.57;100.00
53550;BME280;73079;52.914;-0.982;2024-03-17T03:02:25;101106.19;;;9.64;100.00
53550;BME280;73079;52.914;-0.982;2024-03-17T03:04:51;101101.34;;;9.76;100.00
53550;BME280;73079;52.914;-0.982;2024-03-17T03:07:16;101098.31;;;9.71;100.00
53550;BME280;73079;52.914;-0.982;2024-03-17T03:09:44;101097.34;;;9.72;100.00
53550;BME280;73079;52.914;-0.982;2024-03-17T03:12:12;101094.28;;;9.75;100.00
53550;BME280;73079;52.914;-0.982;2024-03-17T03:14:42;101092.13;;;9.70;100.00
53550;BME280;73079;52.914;-0.982;2024-03-17T03:17:10;101087.59;;;9.71;100.00
53550;BME280;73079;52.914;-0.982;2024-03-17T03:19:38;101075.69;;;9.74;100.00
53550;BME280;73079;52.914;-0.982;2024-03-17T03:22:07;101080.72;;;9.60;100.00
53550;BME280;73079;52.914;-0.982;2024-03-17T03:24:35;101075.69;;;9.74;100.00
53550;BME280;73079;52.914;-0.982;2024-03-17T03:27:03;101072.00;;;9.75;100.00
53550;BME280;73079;52.914;-0.982;2024-03-17T03:29:32;101076.00;;;9.79;100.00
53550;BME280;73079;52.914;-0.982;2024-03-17T03:32:03;101073.81;;;9.82;100.00
53550;BME280;73079;52.914;-0.982;2024-03-17T03:34:30;101072.66;;;9.85;100.00
53550;BME280;73079;52.914;-0.982;2024-03-17T03:36:56;101066.94;;;9.88;100.00
53550;BME280;73079;52.914;-0.982;2024-03-17T03:39:22;101070.97;;;9.92;100.00
53550;BME280;73079;52.914;-0.982;2024-03-17T03:41:47;101066.78;;;9.89;100.00
53550;BME280;73079;52.914;-0.982;2024-03-17T03:44:13;101065.09;;;9.97;100.00
53550;BME280;73079;52.914;-0.982;2024-03-17T03:46:39;101063.56;;;9.94;100.00
53550;BME280;73079;52.914;-0.982;2024-03-17T03:49:07;101059.22;;;9.93;100.00
53550;BME280;73079;52.914;-0.982;2024-03-17T03:51:33;101062.22;;;9.98;100.00
53550;BME280;73079;52.914;-0.982;2024-03-17T03:53:59;101059.22;;;9.93;100.00
53550;BME280;73079;52.914;-0.982;2024-03-17T03:56:25;101052.81;;;10.02;100.00
53550;BME280;73079;52.914;-0.982;2024-03-17T03:58:51;101047.47;;;10.02;100.00
53550;BME280;73079;52.914;-0.982;2024-03-17T04:01:17;101054.00;;;10.00;100.00
53550;BME280;73079;52.914;-0.982;2024-03-17T04:03:47;101050.31;;;10.01;100.00
53550;BME280;73079;52.914;-0.982;2024-03-17T04:06:15;101052.13;;;10.08;100.00
53550;BME280;73079;52.914;-0.982;2024-03-17T04:08:41;101047.63;;;10.01;100.00
53550;BME280;73079;52.914;-0.982;2024-03-17T04:11:07;101049.25;;;10.10;100.00
53550;BME280;73079;52.914;-0.982;2024-03-17T04:13:34;101050.78;;;10.13;100.00
53550;BME280;73079;52.914;-0.982;2024-03-17T04:16:00;101045.44;;;10.04;100.00
53550;BME280;73079;52.914;-0.982;2024-03-17T04:18:26;101050.28;;;10.09;100.00
53550;BME280;73079;52.914;-0.982;2024-03-17T04:20:52;101041.03;;;10.12;100.00
53550;BME280;73079;52.914;-0.982;2024-03-17T04:23:19;101042.56;;;10.06;100.00
53550;BME280;73079;52.914;-0.982;2024-03-17T04:25:45;101043.75;;;10.03;100.00
53550;BME280;73079;52.914;-0.982;2024-03-17T04:28:11;101045.09;;;10.07;100.00
53550;BME280;73079;52.914;-0.982;2024-03-17T04:30:37;101044.78;;;10.02;100.00
53550;BME280;73079;52.914;-0.982;2024-03-17T04:33:03;101033.16;;;10.02;100.00
53550;BME280;73079;52.914;-0.982;2024-03-17T04:35:29;101041.09;;;9.95;100.00
53550;BME280;73079;52.914;-0.982;2024-03-17T04:37:55;101037.72;;;10.01;100.00
53550;BME280;73079;52.914;-0.982;2024-03-17T04:40:23;101041.75;;;9.97;100.00
53550;BME280;73079;52.914;-0.982;2024-03-17T04:42:50;101037.53;;;10.03;100.00
53550;BME280;73079;52.914;-0.982;2024-03-17T04:45:15;101038.41;;;9.95;100.00
53550;BME280;73079;52.914;-0.982;2024-03-17T04:47:41;101027.69;;;9.95;100.00
53550;BME280;73079;52.914;-0.982;2024-03-17T04:50:08;101029.16;;;9.98;100.00
53550;BME280;73079;52.914;-0.982;2024-03-17T04:52:33;101038.75;;;9.84;100.00
53550;BME280;73079;52.914;-0.982;2024-03-17T04:54:59;101027.03;;;9.93;100.00
53550;BME280;73079;52.914;-0.982;2024-03-17T04:57:27;101029.00;;;9.91;100.00
53550;BME280;73079;52.914;-0.982;2024-03-17T04:59:53;101028.00;;;10.00;100.00
53550;BME280;73079;52.914;-0.982;2024-03-17T05:02:19;101031.69;;;9.91;100.00
53550;BME280;73079;52.914;-0.982;2024-03-17T05:04:45;101026.16;;;9.93;100.00
53550;BME280;73079;52.914;-0.982;2024-03-17T05:07:11;101025.81;;;9.96;100.00
53550;BME280;73079;52.914;-0.982;2024-03-17T05:09:37;101020.13;;;9.99;100.00
53550;BME280;73079;52.914;-0.982;2024-03-17T05:12:03;101018.47;;;9.89;100.00
53550;BME280;73079;52.914;-0.982;2024-03-17T05:14:31;101012.56;;;9.94;100.00
53550;BME280;73079;52.914;-0.982;2024-03-17T05:16:57;101023.31;;;9.94;100.00
53550;BME280;73079;52.914;-0.982;2024-03-17T05:19:23;101020.94;;;9.99;100.00
53550;BME280;73079;52.914;-0.982;2024-03-17T05:21:49;101019.97;;;9.92;100.00
53550;BME280;73079;52.914;-0.982;2024-03-17T05:24:15;101018.66;;;9.88;100.00
53550;BME280;73079;52.914;-0.982;2024-03-17T05:26:41;101017.94;;;9.94;100.00
53550;BME280;73079;52.914;-0.982;2024-03-17T05:29:11;101018.09;;;9.93;100.00
53550;BME280;73079;52.914;-0.982;2024-03-17T05:31:38;101016.97;;;9.87;100.00
53550;BME280;73079;52.914;-0.982;2024-03-17T05:34:05;101006.53;;;9.92;100.00
53550;BME280;73079;52.914;-0.982;2024-03-17T05:36:31;101013.63;;;9.85;100.00
53550;BME280;73079;52.914;-0.982;2024-03-17T05:38:58;101014.75;;;9.90;100.00
53550;BME280;73079;52.914;-0.982;2024-03-17T05:41:25;101013.13;;;9.81;100.00
53550;BME280;73079;52.914;-0.982;2024-03-17T05:43:52;101018.97;;;9.85;100.00
53550;BME280;73079;52.914;-0.982;2024-03-17T05:46:18;101009.59;;;9.81;100.00
53550;BME280;73079;52.914;-0.982;2024-03-17T05:48:45;101014.28;;;9.87;100.00
53550;BME280;73079;52.914;-0.982;2024-03-17T05:51:12;101003.56;;;9.79;100.00
53550;BME280;73079;52.914;-0.982;2024-03-17T05:53:39;101015.97;;;9.80;100.00
53550;BME280;73079;52.914;-0.982;2024-03-17T05:56:10;101012.28;;;9.81;100.00
53550;BME280;73079;52.914;-0.982;2024-03-17T05:58:38;101018.66;;;9.71;100.00
53550;BME280;73079;52.914;-0.982;2024-03-17T06:01:04;101014.81;;;9.74;100.00
53550;BME280;73079;52.914;-0.982;2024-03-17T06:03:32;101012.31;;;9.73;100.00
53550;BME280;73079;52.914;-0.982;2024-03-17T06:06:03;101005.91;;;9.82;100.00
53550;BME280;73079;52.914;-0.982;2024-03-17T06:08:29;101008.25;;;9.85;100.00
53550;BME280;73079;52.914;-0.982;2024-03-17T06:10:55;100995.50;;;9.87;100.00
53550;BME280;73079;52.914;-0.982;2024-03-17T06:13:23;101006.06;;;9.80;100.00
53550;BME280;73079;52.914;-0.982;2024-03-17T06:15:50;101005.56;;;9.85;100.00
53550;BME280;73079;52.914;-0.982;2024-03-17T06:18:16;101003.91;;;9.76;100.00
53550;BME280;73079;52.914;-0.982;2024-03-17T06:20:44;101009.06;;;9.85;100.00
53550;BME280;73079;52.914;-0.982;2024-03-17T06:23:12;101002.88;;;9.85;100.00
53550;BME280;73079;52.914;-0.982;2024-03-17T06:25:40;101000.84;;;9.87;100.00
53550;BME280;73079;52.914;-0.982;2024-03-17T06:28:07;100992.81;;;9.87;100.00
53550;BME280;73079;52.914;-0.982;2024-03-17T06:30:33;100995.31;;;9.88;100.00
53550;BME280;73079;52.914;-0.982;2024-03-17T06:33:02;100985.25;;;9.82;100.00
53550;BME280;73079;52.914;-0.982;2024-03-17T06:35:28;100991.47;;;9.83;100.00
53550;BME280;73079;52.914;-0.982;2024-03-17T06:37:59;100990.13;;;9.87;100.00
53550;BME280;73079;52.914;-0.982;2024-03-17T06:40:27;100984.44;;;9.82;100.00
53550;BME280;73079;52.914;-0.982;2024-03-17T06:42:54;100986.59;;;9.86;100.00
53550;BME280;73079;52.914;-0.982;2024-03-17T06:45:20;100984.91;;;9.85;100.00
53550;BME280;73079;52.914;-0.982;2024-03-17T06:47:48;100981.06;;;9.88;100.00
53550;BME280;73079;52.914;-0.982;2024-03-17T06:50:14;100975.69;;;9.88;100.00
53550;BME280;73079;52.914;-0.982;2024-03-17T06:52:41;100975.34;;;9.91;100.00
53550;BME280;73079;52.914;-0.982;2024-03-17T06:55:07;100978.72;;;9.93;100.00
53550;BME280;73079;52.914;-0.982;2024-03-17T06:57:35;100972.66;;;9.91;100.00
53550;BME280;73079;52.914;-0.982;2024-03-17T07:00:01;100973.34;;;9.93;100.00
53550;BME280;73079;52.914;-0.982;2024-03-17T07:02:31;100975.16;;;9.93;100.00
53550;BME280;73079;52.914;-0.982;2024-03-17T07:04:58;100972.47;;;9.93;100.00
53550;BME280;73079;52.914;-0.982;2024-03-17T07:07:26;100961.41;;;9.96;100.00
53550;BME280;73079;52.914;-0.982;2024-03-17T07:09:52;100961.91;;;9.99;100.00
53550;BME280;73079;52.914;-0.982;2024-03-17T07:12:18;100972.16;;;9.96;100.00
53550;BME280;73079;52.914;-0.982;2024-03-17T07:14:46;100967.25;;;9.99;100.00
53550;BME280;73079;52.914;-0.982;2024-03-17T07:17:15;100966.78;;;9.96;100.00
53550;BME280;73079;52.914;-0.982;2024-03-17T07:19:41;100963.91;;;9.97;100.00
53550;BME280;73079;52.914;-0.982;2024-03-17T07:22:07;100960.91;;;10.00;100.00
53550;BME280;73079;52.914;-0.982;2024-03-17T07:24:33;100960.34;;;10.05;100.00
53550;BME280;73079;52.914;-0.982;2024-03-17T07:26:59;100960.22;;;9.98;100.00
53550;BME280;73079;52.914;-0.982;2024-03-17T07:29:25;100969.13;;;9.99;100.00
53550;BME280;73079;52.914;-0.982;2024-03-17T07:31:53;100952.13;;;10.06;100.00
53550;BME280;73079;52.914;-0.982;2024-03-17T07:34:19;100961.50;;;10.11;100.00
53550;BME280;73079;52.914;-0.982;2024-03-17T07:36:47;100961.69;;;10.09;100.00
53550;BME280;73079;52.914;-0.982;2024-03-17T07:39:13;100958.47;;;10.14;100.00
53550;BME280;73079;52.914;-0.982;2024-03-17T07:41:39;100962.28;;;10.19;100.00
53550;BME280;73079;52.914;-0.982;2024-03-17T07:44:05;100955.22;;;10.26;100.00
53550;BME280;73079;52.914;-0.982;2024-03-17T07:46:31;100956.72;;;10.29;100.00
53550;BME280;73079;52.914;-0.982;2024-03-17T07:48:58;100950.19;;;10.32;100.00
53550;BME280;73079;52.914;-0.982;2024-03-17T07:51:24;100950.31;;;10.38;100.00
53550;BME280;73079;52.914;-0.982;2024-03-17T07:53:51;100951.63;;;10.42;100.00
53550;BME280;73079;52.914;-0.982;2024-03-17T07:56:18;100947.28;;;10.41;100.00
53550;BME280;73079;52.914;-0.982;2024-03-17T07:58:45;100948.75;;;10.44;100.00
53550;BME280;73079;52.914;-0.982;2024-03-17T08:01:15;100940.06;;;10.42;100.00
53550;BME280;73079;52.914;-0.982;2024-03-17T08:03:44;100943.88;;;10.48;100.00
53550;BME280;73079;52.914;-0.982;2024-03-17T08:06:12;100935.81;;;10.48;100.00
53550;BME280;73079;52.914;-0.982;2024-03-17T08:08:39;100940.84;;;10.51;100.00
53550;BME280;73079;52.914;-0.982;2024-03-17T08:11:05;100932.44;;;10.54;100.00
53550;BME280;73079;52.914;-0.982;2024-03-17T08:13:32;100932.44;;;10.54;100.00
53550;BME280;73079;52.914;-0.982;2024-03-17T08:16:02;100934.38;;;10.60;100.00
53550;BME280;73079;52.914;-0.982;2024-03-17T08:18:29;100935.44;;;10.59;100.00
53550;BME280;73079;52.914;-0.982;2024-03-17T08:20:56;100937.56;;;10.63;100.00
53550;BME280;73079;52.914;-0.982;2024-03-17T08:23:23;100929.66;;;10.62;100.00
53550;BME280;73079;52.914;-0.982;2024-03-17T08:25:52;100931.69;;;10.60;100.00
53550;BME280;73079;52.914;-0.982;2024-03-17T08:28:19;100933.38;;;10.61;100.00
53550;BME280;73079;52.914;-0.982;2024-03-17T08:30:51;100938.75;;;10.61;100.00
53550;BME280;73079;52.914;-0.982;2024-03-17T08:33:17;100932.97;;;10.72;100.00
53550;BME280;73079;52.914;-0.982;2024-03-17T08:35:52;100924.84;;;10.80;100.00
53550;BME280;73079;52.914;-0.982;2024-03-17T08:38:18;100925.22;;;10.92;100.00
53550;BME280;73079;52.914;-0.982;2024-03-17T08:40:47;100929.06;;;10.98;100.00
53550;BME280;73079;52.914;-0.982;2024-03-17T08:43:13;100930.38;;;11.02;100.00
53550;BME280;73079;52.914;-0.982;2024-03-17T08:45:39;100927.16;;;11.21;100.00
53550;BME280;73079;52.914;-0.982;2024-03-17T08:48:06;100927.16;;;11.21;100.00
53550;BME280;73079;52.914;-0.982;2024-03-17T08:50:32;100923.44;;;11.22;100.00
53550;BME280;73079;52.914;-0.982;2024-03-17T08:52:59;100919.09;;;11.21;100.00
53550;BME280;73079;52.914;-0.982;2024-03-17T08:58:03;100912.88;;;11.21;100.00
53550;BME280;73079;52.914;-0.982;2024-03-17T09:00:29;100910.91;;;11.30;100.00
53550;BME280;73079;52.914;-0.982;2024-03-17T09:02:57;100908.16;;;11.38;100.00
53550;BME280;73079;52.914;-0.982;2024-03-17T09:05:23;100912.06;;;11.35;100.00
53550;BME280;73079;52.914;-0.982;2024-03-17T09:07:49;100914.53;;;11.37;100.00
53550;BME280;73079;52.914;-0.982;2024-03-17T09:10:15;100914.66;;;11.29;100.00
53550;BME280;73079;52.914;-0.982;2024-03-17T09:12:41;100909.38;;;11.35;100.00
53550;BME280;73079;52.914;-0.982;2024-03-17T09:15:09;100912.81;;;11.44;100.00
53550;BME280;73079;52.914;-0.982;2024-03-17T09:17:38;100904.34;;;11.47;100.00
53550;BME280;73079;52.914;-0.982;2024-03-17T09:20:05;100899.16;;;11.46;100.00
53550;BME280;73079;52.914;-0.982;2024-03-17T09:22:36;100902.06;;;11.44;100.00
53550;BME280;73079;52.914;-0.982;2024-03-17T09:25:05;100902.59;;;11.54;100.00
53550;BME280;73079;52.914;-0.982;2024-03-17T09:27:32;100905.84;;;11.50;100.00
53550;BME280;73079;52.914;-0.982;2024-03-17T09:29:59;100904.34;;;11.47;100.00
53550;BME280;73079;52.914;-0.982;2024-03-17T09:32:27;100906.75;;;11.42;100.00
53550;BME280;73079;52.914;-0.982;2024-03-17T09:34:53;100902.41;;;11.41;100.00
53550;BME280;73079;52.914;-0.982;2024-03-17T09:37:19;100914.53;;;11.37;100.00
53550;BME280;73079;52.914;-0.982;2024-03-17T09:39:47;100904.72;;;11.29;100.00
53550;BME280;73079;52.914;-0.982;2024-03-17T09:42:17;100912.91;;;11.36;100.00
53550;BME280;73079;52.914;-0.982;2024-03-17T09:44:46;100906.41;;;11.45;100.00
53550;BME280;73079;52.914;-0.982;2024-03-17T09:47:18;100906.88;;;11.64;100.00
53550;BME280;73079;52.914;-0.982;2024-03-17T09:49:48;100907.03;;;11.77;100.00
53550;BME280;73079;52.914;-0.982;2024-03-17T09:52:20;100904.72;;;11.89;100.00
53550;BME280;73079;52.914;-0.982;2024-03-17T09:54:51;100904.72;;;11.89;100.00
53550;BME280;73079;52.914;-0.982;2024-03-17T09:57:22;100909.19;;;11.96;100.00
53550;BME280;73079;52.914;-0.982;2024-03-17T09:59:52;100903.41;;;12.00;100.00
53550;BME280;73079;52.914;-0.982;2024-03-17T10:02:22;100910.72;;;12.06;100.00
53550;BME280;73079;52.914;-0.982;2024-03-17T10:04:49;100913.16;;;12.01;100.00
53550;BME280;73079;52.914;-0.982;2024-03-17T10:07:16;100898.41;;;11.96;100.00
53550;BME280;73079;52.914;-0.982;2024-03-17T10:09:42;100903.75;;;12.11;100.00
53550;BME280;73079;52.914;-0.982;2024-03-17T10:12:25;100900.25;;;12.32;100.00
53550;BME280;73079;52.914;-0.982;2024-03-17T10:14:58;100902.25;;;12.45;100.00
53550;BME280;73079;52.914;-0.982;2024-03-17T10:17:29;100900.66;;;12.51;100.00
53550;BME280;73079;52.914;-0.982;2024-03-17T10:20:14;100902.19;;;12.60;100.00
53550;BME280;73079;52.914;-0.982;2024-03-17T10:23:00;100906.50;;;12.76;100.00
53550;BME280;73079;52.914;-0.982;2024-03-17T10:25:26;100907.63;;;12.88;100.00
53550;BME280;73079;52.914;-0.982;2024-03-17T10:27:53;100897.69;;;12.89;100.00
53550;BME280;73079;52.914;-0.982;2024-03-17T10:30:20;100904.75;;;12.90;100.00
53550;BME280;73079;52.914;-0.982;2024-03-17T10:32:52;100898.91;;;12.86;100.00
53550;BME280;73079;52.914;-0.982;2024-03-17T10:35:31;100894.34;;;12.87;100.00
53550;BME280;73079;52.914;-0.982;2024-03-17T10:37:59;100893.72;;;12.85;100.00
53550;BME280;73079;52.914;-0.982;2024-03-17T10:40:26;100898.00;;;13.07;100.00
53550;BME280;73079;52.914;-0.982;2024-03-17T10:42:52;100897.69;;;13.17;100.00
53550;BME280;73079;52.914;-0.982;2024-03-17T10:45:19;100896.81;;;13.38;100.00
53550;BME280;73079;52.914;-0.982;2024-03-17T10:47:47;100896.94;;;13.30;100.00
53550;BME280;73079;52.914;-0.982;2024-03-17T10:50:17;100888.34;;;13.41;100.00
53550;BME280;73079;52.914;-0.982;2024-03-17T10:52:46;100882.22;;;13.67;100.00
53550;BME280;73079;52.914;-0.982;2024-03-17T10:55:23;100888.88;;;13.65;100.00
53550;BME280;73079;52.914;-0.982;2024-03-17T10:57:50;100891.09;;;13.55;100.00
53550;BME280;73079;52.914;-0.982;2024-03-17T11:00:18;100896.50;;;13.26;100.00
53550;BME280;73079;52.914;-0.982;2024-03-17T11:02:45;100898.81;;;13.01;100.00
53550;BME280;73079;52.914;-0.982;2024-03-17T11:05:16;100897.25;;;13.13;100.00
53550;BME280;73079;52.914;-0.982;2024-03-17T11:07:45;100898.81;;;13.29;100.00
53550;BME280;73079;52.914;-0.982;2024-03-17T11:10:15;100904.72;;;13.11;100.00
53550;BME280;73079;52.914;-0.982;2024-03-17T11:12:44;100905.59;;;13.19;100.00
53550;BME280;73079;52.914;-0.982;2024-03-17T11:15:35;100897.13;;;13.28;100.00
53550;BME280;73079;52.914;-0.982;2024-03-17T11:18:28;100894.19;;;13.52;100.00
53550;BME280;73079;52.914;-0.982;2024-03-17T11:20:57;100893.66;;;13.63;100.00
53550;BME280;73079;52.914;-0.982;2024-03-17T11:23:27;100892.19;;;13.67;99.75
53550;BME280;73079;52.914;-0.982;2024-03-17T11:25:55;100882.69;;;13.78;95.43
53550;BME280;73079;52.914;-0.982;2024-03-17T11:28:45;100881.31;;;13.54;97.49
53550;BME280;73079;52.914;-0.982;2024-03-17T11:31:39;100886.06;;;13.86;100.00
53550;BME280;73079;52.914;-0.982;2024-03-17T11:34:34;100876.94;;;13.94;98.10
53550;BME280;73079;52.914;-0.982;2024-03-17T11:37:02;100874.84;;;13.96;94.94
53550;BME280;73079;52.914;-0.982;2024-03-17T11:39:53;100869.16;;;13.71;91.94
53550;BME280;73079;52.914;-0.982;2024-03-17T11:42:23;100867.56;;;13.83;93.29
53550;BME280;73079;52.914;-0.982;2024-03-17T11:44:57;100869.72;;;14.08;90.69
53550;BME280;73079;52.914;-0.982;2024-03-17T11:47:33;100863.75;;;14.39;89.04
53550;BME280;73079;52.914;-0.982;2024-03-17T11:50:02;100868.38;;;14.66;88.44
53550;BME280;73079;52.914;-0.982;2024-03-17T11:52:28;100866.25;;;14.48;86.97
53550;BME280;73079;52.914;-0.982;2024-03-17T11:54:55;100869.56;;;14.36;86.58
53550;BME280;73079;52.914;-0.982;2024-03-17T11:57:23;100874.50;;;14.19;86.14
53550;BME280;73079;52.914;-0.982;2024-03-17T11:59:50;100871.03;;;14.39;85.94
53550;BME280;73079;52.914;-0.982;2024-03-17T12:02:18;100871.66;;;14.41;85.33
53550;BME280;73079;52.914;-0.982;2024-03-17T12:04:44;100870.22;;;14.45;84.22
53550;BME280;73079;52.914;-0.982;2024-03-17T12:07:12;100868.81;;;14.76;84.95
53550;BME280;73079;52.914;-0.982;2024-03-17T12:09:40;100856.72;;;14.98;84.55
53550;BME280;73079;52.914;-0.982;2024-03-17T12:12:09;100857.50;;;15.32;83.64
53550;BME280;73079;52.914;-0.982;2024-03-17T12:14:35;100857.38;;;15.79;77.90
53550;BME280;73079;52.914;-0.982;2024-03-17T12:17:03;100858.41;;;16.16;78.89
53550;BME280;73079;52.914;-0.982;2024-03-17T12:19:29;100860.53;;;16.46;79.41
53550;BME280;73079;52.914;-0.982;2024-03-17T12:21:56;100855.81;;;16.35;77.15
53550;BME280;73079;52.914;-0.982;2024-03-17T12:24:23;100861.47;;;15.95;75.66
53550;BME280;73079;52.914;-0.982;2024-03-17T12:26:50;100850.69;;;15.82;77.89
53550;BME280;73079;52.914;-0.982;2024-03-17T12:29:31;100851.53;;;15.75;76.61
53550;BME280;73079;52.914;-0.982;2024-03-17T12:32:02;100842.84;;;15.60;76.34
53550;BME280;73079;52.914;-0.982;2024-03-17T12:34:30;100851.59;;;15.62;77.59
53550;BME280;73079;52.914;-0.982;2024-03-17T12:36:57;100855.19;;;15.43;76.81
53550;BME280;73079;52.914;-0.982;2024-03-17T12:39:24;100846.06;;;15.17;77.00
53550;BME280;73079;52.914;-0.982;2024-03-17T12:42:05;100842.94;;;15.27;77.46